sensor_id;sensor_type;location;lat;lon;timestamp;temperature;humidity
8591;DHT22;4333;48.322;14.340;2024-01-16T00:01:43;0.40;81.20
8591;DHT22;4333;48.322;14.340;2024-01-16T00:04:11;0.40;80.40
8591;DHT22;4333;48.322;14.340;2024-01-16T00:06:41;0.40;83.30
8591;DHT22;4333;48.322;14.340;2024-01-16T00:09:08;0.40;79.60
8591;DHT22;4333;48.322;14.340;2024-01-16T00:11:34;0.40;83.20
8591;DHT22;4333;48.322;14.340;2024-01-16T00:14:04;0.40;80.70
8591;DHT22;4333;48.322;14.340;2024-01-16T00:16:30;0.40;79.50
8591;DHT22;4333;48.322;14.340;2024-01-16T00:18:56;0.30;83.30
8591;DHT22;4333;48.322;14.340;2024-01-16T00:21:21;0.20;82.20
8591;DHT22;4333;48.322;14.340;2024-01-16T00:23:47;0.20;84.60
8591;DHT22;4333;48.322;14.340;2024-01-16T00:26:22;0.20;84.00
8591;DHT22;4333;48.322;14.340;2024-01-16T00:28:50;0.10;85.30
8591;DHT22;4333;48.322;14.340;2024-01-16T00:31:16;0.10;87.50
8591;DHT22;4333;48.322;14.340;2024-01-16T00:33:43;0.10;85.70
8591;DHT22;4333;48.322;14.340;2024-01-16T00:36:10;0.10;86.40
8591;DHT22;4333;48.322;14.340;2024-01-16T00:38:35;0.10;89.50
8591;DHT22;4333;48.322;14.340;2024-01-16T00:41:02;0.00;85.40
8591;DHT22;4333;48.322;14.340;2024-01-16T00:43:27;0.10;88.00
8591;DHT22;4333;48.322;14.340;2024-01-16T00:45:53;0.00;89.60
8591;DHT22;4333;48.322;14.340;2024-01-16T00:48:19;0.00;90.30
8591;DHT22;4333;48.322;14.340;2024-01-16T00:50:46;0.00;91.30
8591;DHT22;4333;48.322;14.340;2024-01-16T00:53:16;-0.10;90.50
8591;DHT22;4333;48.322;14.340;2024-01-16T00:55:42;-0.10;90.80
8591;DHT22;4333;48.322;14.340;2024-01-16T00:58:08;-0.10;90.90
8591;DHT22;4333;48.322;14.340;2024-01-16T01:00:34;-0.10;92.30
8591;DHT22;4333;48.322;14.340;2024-01-16T01:03:04;-0.20;92.10
8591;DHT22;4333;48.322;14.340;2024-01-16T01:05:30;-0.20;90.60
8591;DHT22;4333;48.322;14.340;2024-01-16T01:07:56;-0.20;90.20
8591;DHT22;4333;48.322;14.340;2024-01-16T01:10:25;-0.20;90.30
8591;DHT22;4333;48.322;14.340;2024-01-16T01:12:50;-0.20;90.20
8591;DHT22;4333;48.322;14.340;2024-01-16T01:15:20;-0.20;89.80
8591;DHT22;4333;48.322;14.340;2024-01-16T01:17:48;-0.20;89.30
8591;DHT22;4333;48.322;14.340;2024-01-16T01:20:15;-0.20;87.70
8591;DHT22;4333;48.322;14.340;2024-01-16T01:22:41;-0.20;88.20
8591;DHT22;4333;48.322;14.340;2024-01-16T01:25:07;-0.20;87.00
8591;DHT22;4333;48.322;14.340;2024-01-16T01:27:33;-0.20;88.00
8591;DHT22;4333;48.322;14.340;2024-01-16T01:29:59;-0.20;86.00
8591;DHT22;4333;48.322;14.340;2024-01-16T01:32:26;-0.20;83.20
8591;DHT22;4333;48.322;14.340;2024-01-16T01:34:52;-0.10;82.00
8591;DHT22;4333;48.322;14.340;2024-01-16T01:37:18;-0.20;84.50
8591;DHT22;4333;48.322;14.340;2024-01-16T01:39:43;-0.20;82.40
8591;DHT22;4333;48.322;14.340;2024-01-16T01:42:09;-0.20;83.30
8591;DHT22;4333;48.322;14.340;2024-01-16T01:44:35;-0.20;84.90
8591;DHT22;4333;48.322;14.340;2024-01-16T01:47:01;-0.20;82.90
8591;DHT22;4333;48.322;14.340;2024-01-16T01:49:27;-0.20;84.10
8591;DHT22;4333;48.322;14.340;2024-01-16T01:51:54;-0.20;84.40
8591;DHT22;4333;48.322;14.340;2024-01-16T01:54:21;-0.30;86.20
8591;DHT22;4333;48.322;14.340;2024-01-16T01:56:49;-0.30;87.10
8591;DHT22;4333;48.322;14.340;2024-01-16T01:59:15;-0.30;84.60
8591;DHT22;4333;48.322;14.340;2024-01-16T02:01:45;-0.30;85.70
8591;DHT22;4333;48.322;14.340;2024-01-16T02:04:14;-0.30;85.20
8591;DHT22;4333;48.322;14.340;2024-01-16T02:06:43;-0.30;80.60
8591;DHT22;4333;48.322;14.340;2024-01-16T02:09:12;-0.30;80.50
8591;DHT22;4333;48.322;14.340;2024-01-16T02:11:43;-0.20;78.80
8591;DHT22;4333;48.322;14.340;2024-01-16T02:14:10;-0.20;79.30
8591;DHT22;4333;48.322;14.340;2024-01-16T02:16:37;-0.20;81.70
8591;DHT22;4333;48.322;14.340;2024-01-16T02:19:06;-0.30;83.30
8591;DHT22;4333;48.322;14.340;2024-01-16T02:21:47;-0.30;80.20
8591;DHT22;4333;48.322;14.340;2024-01-16T02:24:19;-0.20;76.80
8591;DHT22;4333;48.322;14.340;2024-01-16T02:26:44;-0.30;79.30
8591;DHT22;4333;48.322;14.340;2024-01-16T02:29:10;-0.30;80.00
8591;DHT22;4333;48.322;14.340;2024-01-16T02:31:36;-0.30;77.70
8591;DHT22;4333;48.322;14.340;2024-01-16T02:34:03;-0.40;76.90
8591;DHT22;4333;48.322;14.340;2024-01-16T02:36:31;-0.40;78.00
8591;DHT22;4333;48.322;14.340;2024-01-16T02:39:01;-0.30;75.40
8591;DHT22;4333;48.322;14.340;2024-01-16T02:41:26;-0.30;78.70
8591;DHT22;4333;48.322;14.340;2024-01-16T02:43:52;-0.40;77.20
8591;DHT22;4333;48.322;14.340;2024-01-16T02:46:18;-0.30;74.60
8591;DHT22;4333;48.322;14.340;2024-01-16T02:48:44;-0.20;69.00
8591;DHT22;4333;48.322;14.340;2024-01-16T02:51:10;-0.10;67.30
8591;DHT22;4333;48.322;14.340;2024-01-16T02:53:36;-0.10;65.90
8591;DHT22;4333;48.322;14.340;2024-01-16T02:56:02;-0.10;65.90
8591;DHT22;4333;48.322;14.340;2024-01-16T02:58:28;-0.10;64.50
8591;DHT22;4333;48.322;14.340;2024-01-16T03:00:54;-0.10;64.70
8591;DHT22;4333;48.322;14.340;2024-01-16T03:03:20;-0.10;65.00
8591;DHT22;4333;48.322;14.340;2024-01-16T03:05:47;-0.20;64.50
8591;DHT22;4333;48.322;14.340;2024-01-16T03:08:13;-0.10;63.40
8591;DHT22;4333;48.322;14.340;2024-01-16T03:10:40;-0.10;61.70
8591;DHT22;4333;48.322;14.340;2024-01-16T03:13:06;-0.20;63.10
8591;DHT22;4333;48.322;14.340;2024-01-16T03:15:34;-0.20;64.40
8591;DHT22;4333;48.322;14.340;2024-01-16T03:18:00;-0.30;64.10
8591;DHT22;4333;48.322;14.340;2024-01-16T03:20:30;-0.20;60.80
8591;DHT22;4333;48.322;14.340;2024-01-16T03:22:56;-0.20;57.70
8591;DHT22;4333;48.322;14.340;2024-01-16T03:25:21;-0.20;58.30
8591;DHT22;4333;48.322;14.340;2024-01-16T03:27:50;-0.30;59.60
8591;DHT22;4333;48.322;14.340;2024-01-16T03:30:15;-0.20;56.90
8591;DHT22;4333;48.322;14.340;2024-01-16T03:32:41;-0.20;56.70
8591;DHT22;4333;48.322;14.340;2024-01-16T03:35:07;-0.30;57.60
8591;DHT22;4333;48.322;14.340;2024-01-16T03:37:33;-0.40;57.30
8591;DHT22;4333;48.322;14.340;2024-01-16T03:40:02;-0.40;57.20
8591;DHT22;4333;48.322;14.340;2024-01-16T03:42:28;-0.40;57.20
8591;DHT22;4333;48.322;14.340;2024-01-16T03:44:59;-0.40;57.30
8591;DHT22;4333;48.322;14.340;2024-01-16T03:47:27;-0.20;53.10
8591;DHT22;4333;48.322;14.340;2024-01-16T03:49:53;-0.10;53.00
8591;DHT22;4333;48.322;14.340;2024-01-16T03:52:18;-0.20;53.80
8591;DHT22;4333;48.322;14.340;2024-01-16T03:54:44;-0.20;51.20
8591;DHT22;4333;48.322;14.340;2024-01-16T03:57:10;-0.20;52.50
8591;DHT22;4333;48.322;14.340;2024-01-16T03:59:39;-0.20;52.80
8591;DHT22;4333;48.322;14.340;2024-01-16T04:02:04;-0.10;51.20
8591;DHT22;4333;48.322;14.340;2024-01-16T04:04:31;-0.10;51.10
8591;DHT22;4333;48.322;14.340;2024-01-16T04:07:00;-0.10;50.10
8591;DHT22;4333;48.322;14.340;2024-01-16T04:09:25;-0.10;50.50
8591;DHT22;4333;48.322;14.340;2024-01-16T04:11:53;-0.10;51.40
8591;DHT22;4333;48.322;14.340;2024-01-16T04:14:19;0.00;47.70
8591;DHT22;4333;48.322;14.340;2024-01-16T04:16:45;0.00;48.50
8591;DHT22;4333;48.322;14.340;2024-01-16T04:19:13;0.00;47.70
8591;DHT22;4333;48.322;14.340;2024-01-16T04:21:42;0.00;47.50
8591;DHT22;4333;48.322;14.340;2024-01-16T04:24:10;0.00;47.40
8591;DHT22;4333;48.322;14.340;2024-01-16T04:26:36;0.00;46.70
8591;DHT22;4333;48.322;14.340;2024-01-16T04:29:03;0.00;47.00
8591;DHT22;4333;48.322;14.340;2024-01-16T04:31:30;0.10;46.20
8591;DHT22;4333;48.322;14.340;2024-01-16T04:33:58;0.10;45.50
8591;DHT22;4333;48.322;14.340;2024-01-16T04:36:24;0.10;44.10
8591;DHT22;4333;48.322;14.340;2024-01-16T04:38:49;0.20;45.20
8591;DHT22;4333;48.322;14.340;2024-01-16T04:41:18;0.10;45.40
8591;DHT22;4333;48.322;14.340;2024-01-16T04:43:44;0.10;48.60
8591;DHT22;4333;48.322;14.340;2024-01-16T04:46:11;0.10;47.50
8591;DHT22;4333;48.322;14.340;2024-01-16T04:48:37;0.10;44.70
8591;DHT22;4333;48.322;14.340;2024-01-16T04:51:03;0.10;45.80
8591;DHT22;4333;48.322;14.340;2024-01-16T04:53:29;0.10;46.10
8591;DHT22;4333;48.322;14.340;2024-01-16T04:55:54;0.10;47.50
8591;DHT22;4333;48.322;14.340;2024-01-16T04:58:20;0.10;48.40
8591;DHT22;4333;48.322;14.340;2024-01-16T05:00:46;0.10;48.20
8591;DHT22;4333;48.322;14.340;2024-01-16T05:03:12;0.10;46.60
8591;DHT22;4333;48.322;14.340;2024-01-16T05:05:41;0.10;49.10
8591;DHT22;4333;48.322;14.340;2024-01-16T05:08:11;0.10;49.50
8591;DHT22;4333;48.322;14.340;2024-01-16T05:10:37;0.10;46.10
8591;DHT22;4333;48.322;14.340;2024-01-16T05:13:03;0.10;45.00
8591;DHT22;4333;48.322;14.340;2024-01-16T05:15:28;0.20;45.20
8591;DHT22;4333;48.322;14.340;2024-01-16T05:17:55;0.20;45.80
8591;DHT22;4333;48.322;14.340;2024-01-16T05:20:21;0.10;45.30
8591;DHT22;4333;48.322;14.340;2024-01-16T05:22:47;0.10;45.80
8591;DHT22;4333;48.322;14.340;2024-01-16T05:25:13;0.10;45.10
8591;DHT22;4333;48.322;14.340;2024-01-16T05:27:38;0.10;45.50
8591;DHT22;4333;48.322;14.340;2024-01-16T05:30:04;0.00;46.20
8591;DHT22;4333;48.322;14.340;2024-01-16T05:32:30;0.00;46.30
8591;DHT22;4333;48.322;14.340;2024-01-16T05:34:56;-0.10;46.00
8591;DHT22;4333;48.322;14.340;2024-01-16T05:37:29;-0.10;48.10
8591;DHT22;4333;48.322;14.340;2024-01-16T05:39:55;-0.10;49.20
8591;DHT22;4333;48.322;14.340;2024-01-16T05:42:21;-0.20;50.70
8591;DHT22;4333;48.322;14.340;2024-01-16T05:44:49;-0.10;45.90
8591;DHT22;4333;48.322;14.340;2024-01-16T05:47:15;-0.10;46.40
8591;DHT22;4333;48.322;14.340;2024-01-16T05:49:43;-0.10;47.00
8591;DHT22;4333;48.322;14.340;2024-01-16T05:52:11;-0.20;47.90
8591;DHT22;4333;48.322;14.340;2024-01-16T05:54:37;-0.20;49.30
8591;DHT22;4333;48.322;14.340;2024-01-16T05:57:03;-0.20;44.90
8591;DHT22;4333;48.322;14.340;2024-01-16T05:59:32;-0.20;47.90
8591;DHT22;4333;48.322;14.340;2024-01-16T06:01:57;-0.20;48.70
8591;DHT22;4333;48.322;14.340;2024-01-16T06:04:23;-0.20;47.70
8591;DHT22;4333;48.322;14.340;2024-01-16T06:06:57;-0.20;49.60
8591;DHT22;4333;48.322;14.340;2024-01-16T06:09:24;-0.30;50.90
8591;DHT22;4333;48.322;14.340;2024-01-16T06:11:50;-0.30;49.40
8591;DHT22;4333;48.322;14.340;2024-01-16T06:14:16;-0.30;49.50
8591;DHT22;4333;48.322;14.340;2024-01-16T06:16:47;-0.30;49.50
8591;DHT22;4333;48.322;14.340;2024-01-16T06:19:13;-0.30;48.80
8591;DHT22;4333;48.322;14.340;2024-01-16T06:21:40;-0.30;48.10
8591;DHT22;4333;48.322;14.340;2024-01-16T06:24:08;-0.30;50.30
8591;DHT22;4333;48.322;14.340;2024-01-16T06:26:34;-0.30;50.60
8591;DHT22;4333;48.322;14.340;2024-01-16T06:29:02;-0.30;53.50
8591;DHT22;4333;48.322;14.340;2024-01-16T06:31:31;-0.30;54.40
8591;DHT22;4333;48.322;14.340;2024-01-16T06:34:00;-0.30;54.80
8591;DHT22;4333;48.322;14.340;2024-01-16T06:36:29;-0.40;54.90
8591;DHT22;4333;48.322;14.340;2024-01-16T06:38:55;-0.30;53.60
8591;DHT22;4333;48.322;14.340;2024-01-16T06:41:21;-0.30;55.50
8591;DHT22;4333;48.322;14.340;2024-01-16T06:43:47;-0.30;55.10
8591;DHT22;4333;48.322;14.340;2024-01-16T06:46:15;-0.30;55.80
8591;DHT22;4333;48.322;14.340;2024-01-16T06:48:41;-0.30;54.60
8591;DHT22;4333;48.322;14.340;2024-01-16T06:51:06;-0.30;54.40
8591;DHT22;4333;48.322;14.340;2024-01-16T06:53:36;-0.30;54.40
8591;DHT22;4333;48.322;14.340;2024-01-16T06:56:01;-0.20;51.90
8591;DHT22;4333;48.322;14.340;2024-01-16T06:58:28;-0.30;54.10
8591;DHT22;4333;48.322;14.340;2024-01-16T07:00:54;-0.30;54.60
8591;DHT22;4333;48.322;14.340;2024-01-16T07:03:20;-0.30;56.50
8591;DHT22;4333;48.322;14.340;2024-01-16T07:05:46;-0.30;56.10
8591;DHT22;4333;48.322;14.340;2024-01-16T07:08:12;-0.30;55.90
8591;DHT22;4333;48.322;14.340;2024-01-16T07:10:37;-0.30;54.20
8591;DHT22;4333;48.322;14.340;2024-01-16T07:13:03;-0.30;55.30
8591;DHT22;4333;48.322;14.340;2024-01-16T07:15:29;-0.30;57.10
8591;DHT22;4333;48.322;14.340;2024-01-16T07:17:55;-0.30;55.00
8591;DHT22;4333;48.322;14.340;2024-01-16T07:20:20;-0.30;56.40
8591;DHT22;4333;48.322;14.340;2024-01-16T07:22:47;-0.20;54.00
8591;DHT22;4333;48.322;14.340;2024-01-16T07:25:12;-0.20;55.10
8591;DHT22;4333;48.322;14.340;2024-01-16T07:27:38;-0.20;53.20
8591;DHT22;4333;48.322;14.340;2024-01-16T07:30:08;-0.10;55.00
8591;DHT22;4333;48.322;14.340;2024-01-16T07:32:34;-0.20;55.50
8591;DHT22;4333;48.322;14.340;2024-01-16T07:35:00;-0.20;55.10
8591;DHT22;4333;48.322;14.340;2024-01-16T07:37:30;-0.10;58.80
8591;DHT22;4333;48.322;14.340;2024-01-16T07:39:56;-0.10;53.90
8591;DHT22;4333;48.322;14.340;2024-01-16T07:42:24;-0.10;55.30
8591;DHT22;4333;48.322;14.340;2024-01-16T07:44:50;-0.10;56.10
8591;DHT22;4333;48.322;14.340;2024-01-16T07:47:18;-0.10;56.60
8591;DHT22;4333;48.322;14.340;2024-01-16T07:49:44;-0.10;56.20
8591;DHT22;4333;48.322;14.340;2024-01-16T07:52:10;-0.10;55.40
8591;DHT22;4333;48.322;14.340;2024-01-16T07:54:37;0.00;54.70
8591;DHT22;4333;48.322;14.340;2024-01-16T07:57:03;0.00;56.10
8591;DHT22;4333;48.322;14.340;2024-01-16T07:59:31;0.00;54.90
8591;DHT22;4333;48.322;14.340;2024-01-16T08:01:57;0.00;56.70
8591;DHT22;4333;48.322;14.340;2024-01-16T08:04:23;0.00;56.20
8591;DHT22;4333;48.322;14.340;2024-01-16T08:06:48;0.10;57.30
8591;DHT22;4333;48.322;14.340;2024-01-16T08:09:14;0.10;56.50
8591;DHT22;4333;48.322;14.340;2024-01-16T08:11:42;0.10;56.00
8591;DHT22;4333;48.322;14.340;2024-01-16T08:14:08;0.20;58.00
8591;DHT22;4333;48.322;14.340;2024-01-16T08:16:34;0.20;53.80
8591;DHT22;4333;48.322;14.340;2024-01-16T08:18:59;0.30;54.20
8591;DHT22;4333;48.322;14.340;2024-01-16T08:21:25;0.20;51.50
8591;DHT22;4333;48.322;14.340;2024-01-16T08:23:52;0.30;52.00
8591;DHT22;4333;48.322;14.340;2024-01-16T08:26:18;0.30;51.20
8591;DHT22;4333;48.322;14.340;2024-01-16T08:28:43;0.30;51.40
8591;DHT22;4333;48.322;14.340;2024-01-16T08:31:11;0.30;47.30
8591;DHT22;4333;48.322;14.340;2024-01-16T08:33:37;0.20;47.50
8591;DHT22;4333;48.322;14.340;2024-01-16T08:36:05;0.30;49.50
8591;DHT22;4333;48.322;14.340;2024-01-16T08:38:31;0.30;47.80
8591;DHT22;4333;48.322;14.340;2024-01-16T08:40:56;0.30;46.00
8591;DHT22;4333;48.322;14.340;2024-01-16T08:43:24;0.40;47.10
8591;DHT22;4333;48.322;14.340;2024-01-16T08:45:50;0.50;46.80
8591;DHT22;4333;48.322;14.340;2024-01-16T08:48:16;0.50;47.80
8591;DHT22;4333;48.322;14.340;2024-01-16T08:50:42;0.60;45.10
8591;DHT22;4333;48.322;14.340;2024-01-16T08:53:09;0.70;41.50
8591;DHT22;4333;48.322;14.340;2024-01-16T08:55:35;0.80;45.60
8591;DHT22;4333;48.322;14.340;2024-01-16T08:58:00;0.90;43.40
8591;DHT22;4333;48.322;14.340;2024-01-16T09:00:26;1.00;36.80
8591;DHT22;4333;48.322;14.340;2024-01-16T09:02:52;1.00;39.50
8591;DHT22;4333;48.322;14.340;2024-01-16T09:05:18;1.00;37.70
8591;DHT22;4333;48.322;14.340;2024-01-16T09:07:47;1.10;37.60
8591;DHT22;4333;48.322;14.340;2024-01-16T09:10:14;1.20;35.70
8591;DHT22;4333;48.322;14.340;2024-01-16T09:12:43;1.30;33.90
8591;DHT22;4333;48.322;14.340;2024-01-16T09:15:10;1.30;31.40
8591;DHT22;4333;48.322;14.340;2024-01-16T09:17:35;1.30;36.40
8591;DHT22;4333;48.322;14.340;2024-01-16T09:20:01;1.30;33.80
8591;DHT22;4333;48.322;14.340;2024-01-16T09:22:27;1.40;35.80
8591;DHT22;4333;48.322;14.340;2024-01-16T09:24:52;1.50;34.00
8591;DHT22;4333;48.322;14.340;2024-01-16T09:27:18;1.60;34.00
8591;DHT22;4333;48.322;14.340;2024-01-16T09:29:45;1.80;30.00
8591;DHT22;4333;48.322;14.340;2024-01-16T09:32:14;1.90;33.30
8591;DHT22;4333;48.322;14.340;2024-01-16T09:34:40;2.00;30.40
8591;DHT22;4333;48.322;14.340;2024-01-16T09:37:06;2.00;25.70
8591;DHT22;4333;48.322;14.340;2024-01-16T09:39:31;1.90;25.60
8591;DHT22;4333;48.322;14.340;2024-01-16T09:42:00;1.80;28.60
8591;DHT22;4333;48.322;14.340;2024-01-16T09:44:31;1.90;25.00
8591;DHT22;4333;48.322;14.340;2024-01-16T09:46:58;1.90;19.80
8591;DHT22;4333;48.322;14.340;2024-01-16T09:49:25;1.90;20.40
8591;DHT22;4333;48.322;14.340;2024-01-16T09:51:53;1.60;21.80
8591;DHT22;4333;48.322;14.340;2024-01-16T09:54:18;1.70;25.50
8591;DHT22;4333;48.322;14.340;2024-01-16T09:56:48;1.90;25.70
8591;DHT22;4333;48.322;14.340;2024-01-16T09:59:17;2.20;24.40
8591;DHT22;4333;48.322;14.340;2024-01-16T10:01:49;2.60;22.10
8591;DHT22;4333;48.322;14.340;2024-01-16T10:04:16;2.90;19.00
8591;DHT22;4333;48.322;14.340;2024-01-16T10:06:45;3.10;17.90
8591;DHT22;4333;48.322;14.340;2024-01-16T10:09:17;3.10;14.50
8591;DHT22;4333;48.322;14.340;2024-01-16T10:11:42;3.10;10.50
8591;DHT22;4333;48.322;14.340;2024-01-16T10:14:11;2.80;7.80
8591;DHT22;4333;48.322;14.340;2024-01-16T10:17:02;2.40;11.50
8591;DHT22;4333;48.322;14.340;2024-01-16T10:19:33;2.70;22.20
8591;DHT22;4333;48.322;14.340;2024-01-16T10:22:04;2.70;10.50
8591;DHT22;4333;48.322;14.340;2024-01-16T10:24:30;2.80;13.20
8591;DHT22;4333;48.322;14.340;2024-01-16T10:27:00;2.80;12.60
8591;DHT22;4333;48.322;14.340;2024-01-16T10:29:28;2.80;10.80
8591;DHT22;4333;48.322;14.340;2024-01-16T10:31:57;2.70;7.40
8591;DHT22;4333;48.322;14.340;2024-01-16T10:34:25;2.90;9.00
8591;DHT22;4333;48.322;14.340;2024-01-16T10:36:59;2.90;7.20
8591;DHT22;4333;48.322;14.340;2024-01-16T10:39:29;2.80;4.00
8591;DHT22;4333;48.322;14.340;2024-01-16T10:41:57;2.80;2.50
8591;DHT22;4333;48.322;14.340;2024-01-16T10:44:26;2.80;7.90
8591;DHT22;4333;48.322;14.340;2024-01-16T10:47:10;2.90;7.20
8591;DHT22;4333;48.322;14.340;2024-01-16T10:49:37;2.90;7.70
8591;DHT22;4333;48.322;14.340;2024-01-16T10:52:06;3.10;4.20
8591;DHT22;4333;48.322;14.340;2024-01-16T10:54:34;3.30;8.50
8591;DHT22;4333;48.322;14.340;2024-01-16T10:57:06;3.30;5.40
8591;DHT22;4333;48.322;14.340;2024-01-16T10:59:48;3.20;1.00
8591;DHT22;4333;48.322;14.340;2024-01-16T11:02:20;3.30;6.00
8591;DHT22;4333;48.322;14.340;2024-01-16T11:04:51;3.30;1.40
8591;DHT22;4333;48.322;14.340;2024-01-16T11:07:21;3.20;3.40
8591;DHT22;4333;48.322;14.340;2024-01-16T11:09:50;3.20;1.40
8591;DHT22;4333;48.322;14.340;2024-01-16T11:12:16;3.10;2.10
8591;DHT22;4333;48.322;14.340;2024-01-16T11:14:49;3.20;3.40
8591;DHT22;4333;48.322;14.340;2024-01-16T11:17:21;3.20;3.50
8591;DHT22;4333;48.322;14.340;2024-01-16T11:19:50;3.00;1.00
8591;DHT22;4333;48.322;14.340;2024-01-16T11:22:18;3.20;3.60
8591;DHT22;4333;48.322;14.340;2024-01-16T11:24:44;3.20;1.00
8591;DHT22;4333;48.322;14.340;2024-01-16T11:27:24;3.20;1.00
8591;DHT22;4333;48.322;14.340;2024-01-16T11:29:51;3.40;3.80
8591;DHT22;4333;48.322;14.340;2024-01-16T11:32:36;3.40;1.00
8591;DHT22;4333;48.322;14.340;2024-01-16T11:35:04;3.30;1.00
8591;DHT22;4333;48.322;14.340;2024-01-16T11:37:35;3.30;1.00
8591;DHT22;4333;48.322;14.340;2024-01-16T11:42:53;3.20;2.20
8591;DHT22;4333;48.322;14.340;2024-01-16T11:48:11;3.30;1.00
8591;DHT22;4333;48.322;14.340;2024-01-16T11:50:37;3.30;1.00
8591;DHT22;4333;48.322;14.340;2024-01-16T11:53:06;3.30;1.00
8591;DHT22;4333;48.322;14.340;2024-01-16T12:00:56;3.00;1.00
8591;DHT22;4333;48.322;14.340;2024-01-16T12:03:24;3.20;1.00
8591;DHT22;4333;48.322;14.340;2024-01-16T12:06:02;3.30;1.00
8591;DHT22;4333;48.322;14.340;2024-01-16T12:08:30;3.30;1.00
8591;DHT22;4333;48.322;14.340;2024-01-16T12:10:58;3.30;1.00
8591;DHT22;4333;48.322;14.340;2024-01-16T12:13:29;3.30;1.00
8591;DHT22;4333;48.322;14.340;2024-01-16T12:16:02;3.40;1.00
8591;DHT22;4333;48.322;14.340;2024-01-16T12:18:31;3.20;1.00
8591;DHT22;4333;48.322;14.340;2024-01-16T12:20:57;3.40;1.00
8591;DHT22;4333;48.322;14.340;2024-01-16T12:23:24;3.50;1.00
8591;DHT22;4333;48.322;14.340;2024-01-16T12:25:53;3.60;1.00
8591;DHT22;4333;48.322;14.340;2024-01-16T12:28:27;3.70;1.00
8591;DHT22;4333;48.322;14.340;2024-01-16T12:30:55;3.90;1.00
8591;DHT22;4333;48.322;14.340;2024-01-16T12:33:23;3.90;1.00
8591;DHT22;4333;48.322;14.340;2024-01-16T12:36:00;4.00;1.00
8591;DHT22;4333;48.322;14.340;2024-01-16T12:38:28;3.90;1.00
8591;DHT22;4333;48.322;14.340;2024-01-16T12:40:56;4.00;1.00
8591;DHT22;4333;48.322;14.340;2024-01-16T12:43:23;4.20;1.00
8591;DHT22;4333;48.322;14.340;2024-01-16T12:45:56;4.40;1.00
8591;DHT22;4333;48.322;14.340;2024-01-16T12:48:26;4.30;1.00
8591;DHT22;4333;48.322;14.340;2024-01-16T12:50:59;4.20;1.00
8591;DHT22;4333;48.322;14.340;2024-01-16T12:53:27;4.00;1.00
8591;DHT22;4333;48.322;14.340;2024-01-16T12:56:01;4.00;1.00
8591;DHT22;4333;48.322;14.340;2024-01-16T12:58:34;4.10;1.00
8591;DHT22;4333;48.322;14.340;2024-01-16T13:01:21;4.30;1.00
8591;DHT22;4333;48.322;14.340;2024-01-16T13:03:47;4.30;1.00
8591;DHT22;4333;48.322;14.340;2024-01-16T13:06:17;4.40;1.00
8591;DHT22;4333;48.322;14.340;2024-01-16T13:08:45;4.20;1.00
8591;DHT22;4333;48.322;14.340;2024-01-16T13:11:14;4.20;1.00
8591;DHT22;4333;48.322;14.340;2024-01-16T13:13:48;4.10;1.00
8591;DHT22;4333;48.322;14.340;2024-01-16T13:16:18;4.10;1.00
8591;DHT22;4333;48.322;14.340;2024-01-16T13:18:44;4.00;1.00
8591;DHT22;4333;48.322;14.340;2024-01-16T13:21:10;4.10;1.00
8591;DHT22;4333;48.322;14.340;2024-01-16T13:23:36;4.10;1.00
8591;DHT22;4333;48.322;14.340;2024-01-16T13:26:01;4.20;1.00
8591;DHT22;4333;48.322;14.340;2024-01-16T13:28:30;4.20;1.00
8591;DHT22;4333;48.322;14.340;2024-01-16T13:30:58;4.10;1.00
8591;DHT22;4333;48.322;14.340;2024-01-16T13:33:24;4.10;1.00
8591;DHT22;4333;48.322;14.340;2024-01-16T13:35:59;4.00;1.00
8591;DHT22;4333;48.322;14.340;2024-01-16T13:38:27;3.80;1.00
8591;DHT22;4333;48.322;14.340;2024-01-16T13:40:53;3.80;1.00
8591;DHT22;4333;48.322;14.340;2024-01-16T13:43:23;3.70;1.00
8591;DHT22;4333;48.322;14.340;2024-01-16T13:45:54;3.50;1.00
8591;DHT22;4333;48.322;14.340;2024-01-16T13:48:20;3.50;1.00
8591;DHT22;4333;48.322;14.340;2024-01-16T13:50:46;3.40;1.00
8591;DHT22;4333;48.322;14.340;2024-01-16T13:53:12;3.40;1.00
8591;DHT22;4333;48.322;14.340;2024-01-16T13:55:40;3.30;1.00
8591;DHT22;4333;48.322;14.340;2024-01-16T13:58:07;3.30;1.00
8591;DHT22;4333;48.322;14.340;2024-01-16T14:00:34;3.20;1.00
8591;DHT22;4333;48.322;14.340;2024-01-16T14:03:00;3.10;1.00
8591;DHT22;4333;48.322;14.340;2024-01-16T14:05:28;3.10;1.00
8591;DHT22;4333;48.322;14.340;2024-01-16T14:07:54;3.00;1.00
8591;DHT22;4333;48.322;14.340;2024-01-16T14:10:22;2.90;1.00
8591;DHT22;4333;48.322;14.340;2024-01-16T14:12:51;2.90;1.00
8591;DHT22;4333;48.322;14.340;2024-01-16T14:15:19;3.00;1.00
8591;DHT22;4333;48.322;14.340;2024-01-16T14:17:56;3.00;1.00
8591;DHT22;4333;48.322;14.340;2024-01-16T14:20:24;2.90;1.00
8591;DHT22;4333;48.322;14.340;2024-01-16T14:22:51;2.90;1.00
8591;DHT22;4333;48.322;14.340;2024-01-16T14:25:21;3.00;1.00
8591;DHT22;4333;48.322;14.340;2024-01-16T14:28:01;3.00;1.00
8591;DHT22;4333;48.322;14.340;2024-01-16T14:30:32;3.10;1.00
8591;DHT22;4333;48.322;14.340;2024-01-16T14:32:58;3.10;1.00
8591;DHT22;4333;48.322;14.340;2024-01-16T14:35:24;3.20;1.00
8591;DHT22;4333;48.322;14.340;2024-01-16T14:37:51;3.10;1.00
8591;DHT22;4333;48.322;14.340;2024-01-16T14:40:18;3.10;1.00
8591;DHT22;4333;48.322;14.340;2024-01-16T14:42:51;3.00;1.00
8591;DHT22;4333;48.322;14.340;2024-01-16T14:45:19;3.00;1.00
8591;DHT22;4333;48.322;14.340;2024-01-16T14:47:46;2.90;1.00
8591;DHT22;4333;48.322;14.340;2024-01-16T14:50:12;2.90;1.00
8591;DHT22;4333;48.322;14.340;2024-01-16T14:52:41;2.90;1.00
8591;DHT22;4333;48.322;14.340;2024-01-16T14:55:10;2.80;1.00
8591;DHT22;4333;48.322;14.340;2024-01-16T14:57:40;2.80;1.00
8591;DHT22;4333;48.322;14.340;2024-01-16T15:00:11;2.80;1.00
8591;DHT22;4333;48.322;14.340;2024-01-16T15:02:41;2.70;1.00
8591;DHT22;4333;48.322;14.340;2024-01-16T15:05:07;2.60;1.00
8591;DHT22;4333;48.322;14.340;2024-01-16T15:07:35;2.40;1.00
8591;DHT22;4333;48.322;14.340;2024-01-16T15:10:04;2.40;1.00
8591;DHT22;4333;48.322;14.340;2024-01-16T15:12:31;2.20;1.00
8591;DHT22;4333;48.322;14.340;2024-01-16T15:14:58;1.80;6.70
8591;DHT22;4333;48.322;14.340;2024-01-16T15:17:27;1.50;14.20
8591;DHT22;4333;48.322;14.340;2024-01-16T15:19:54;1.30;18.10
8591;DHT22;4333;48.322;14.340;2024-01-16T15:22:19;1.10;19.40
8591;DHT22;4333;48.322;14.340;2024-01-16T15:24:49;1.00;22.50
8591;DHT22;4333;48.322;14.340;2024-01-16T15:27:17;0.90;23.70
8591;DHT22;4333;48.322;14.340;2024-01-16T15:29:45;0.80;20.70
8591;DHT22;4333;48.322;14.340;2024-01-16T15:32:12;0.80;29.40
8591;DHT22;4333;48.322;14.340;2024-01-16T15:34:38;0.80;26.60
8591;DHT22;4333;48.322;14.340;2024-01-16T15:37:04;0.70;27.80
8591;DHT22;4333;48.322;14.340;2024-01-16T15:39:30;0.70;31.70
8591;DHT22;4333;48.322;14.340;2024-01-16T15:41:55;0.60;32.80
8591;DHT22;4333;48.322;14.340;2024-01-16T15:44:21;0.50;45.70
8591;DHT22;4333;48.322;14.340;2024-01-16T15:46:57;0.40;42.00
8591;DHT22;4333;48.322;14.340;2024-01-16T15:49:24;0.40;32.00
8591;DHT22;4333;48.322;14.340;2024-01-16T15:51:49;0.50;26.10
8591;DHT22;4333;48.322;14.340;2024-01-16T15:54:15;0.50;24.40
8591;DHT22;4333;48.322;14.340;2024-01-16T15:56:43;0.30;35.10
8591;DHT22;4333;48.322;14.340;2024-01-16T15:59:10;0.20;46.60
8591;DHT22;4333;48.322;14.340;2024-01-16T16:01:40;0.00;51.30
8591;DHT22;4333;48.322;14.340;2024-01-16T16:04:06;-0.10;52.70
8591;DHT22;4333;48.322;14.340;2024-01-16T16:06:39;-0.20;53.30
8591;DHT22;4333;48.322;14.340;2024-01-16T16:09:06;-0.20;49.60
8591;DHT22;4333;48.322;14.340;2024-01-16T16:11:40;-0.20;47.20
8591;DHT22;4333;48.322;14.340;2024-01-16T16:14:15;-0.10;44.00